sensor_id;sensor_type;location;lat;lon;timestamp;temperature;humidity
14144;DHT22;7152;48.348;10.980;2023-06-22T00:00:49;20.50;99.90
14144;DHT22;7152;48.348;10.980;2023-06-22T00:03:16;20.40;99.90
14144;DHT22;7152;48.348;10.980;2023-06-22T00:05:48;20.50;99.90
14144;DHT22;7152;48.348;10.980;2023-06-22T00:08:15;20.40;99.90
14144;DHT22;7152;48.348;10.980;2023-06-22T00:10:41;20.40;99.90
14144;DHT22;7152;48.348;10.980;2023-06-22T00:13:08;20.40;99.90
14144;DHT22;7152;48.348;10.980;2023-06-22T00:15:35;20.40;99.90
14144;DHT22;7152;48.348;10.980;2023-06-22T00:18:01;20.40;99.90
14144;DHT22;7152;48.348;10.980;2023-06-22T00:20:28;20.40;99.90
14144;DHT22;7152;48.348;10.980;2023-06-22T00:22:58;20.40;99.90
14144;DHT22;7152;48.348;10.980;2023-06-22T00:25:24;20.40;99.90
14144;DHT22;7152;48.348;10.980;2023-06-22T00:27:50;20.40;99.90
14144;DHT22;7152;48.348;10.980;2023-06-22T00:30:17;20.40;99.90
14144;DHT22;7152;48.348;10.980;2023-06-22T00:32:44;20.40;99.90
14144;DHT22;7152;48.348;10.980;2023-06-22T00:35:11;20.30;99.90
14144;DHT22;7152;48.348;10.980;2023-06-22T00:37:38;20.30;99.90
14144;DHT22;7152;48.348;10.980;2023-06-22T00:40:08;20.30;99.90
14144;DHT22;7152;48.348;10.980;2023-06-22T00:42:40;20.20;99.90
14144;DHT22;7152;48.348;10.980;2023-06-22T00:45:07;20.20;99.90
14144;DHT22;7152;48.348;10.980;2023-06-22T00:47:34;20.20;99.90
14144;DHT22;7152;48.348;10.980;2023-06-22T00:50:05;20.20;99.90
14144;DHT22;7152;48.348;10.980;2023-06-22T00:52:32;20.20;99.90
14144;DHT22;7152;48.348;10.980;2023-06-22T00:55:01;20.10;99.90
14144;DHT22;7152;48.348;10.980;2023-06-22T00:57:28;20.10;99.90
14144;DHT22;7152;48.348;10.980;2023-06-22T00:59:55;20.10;99.90
14144;DHT22;7152;48.348;10.980;2023-06-22T01:02:21;20.10;99.90
14144;DHT22;7152;48.348;10.980;2023-06-22T01:04:47;20.10;99.90
14144;DHT22;7152;48.348;10.980;2023-06-22T01:12:34;20.00;99.90
14144;DHT22;7152;48.348;10.980;2023-06-22T01:16:00;19.90;99.90
14144;DHT22;7152;48.348;10.980;2023-06-22T01:18:04;19.90;99.90
14144;DHT22;7152;48.348;10.980;2023-06-22T01:20:32;19.90;99.90
14144;DHT22;7152;48.348;10.980;2023-06-22T01:23:06;19.90;99.90
14144;DHT22;7152;48.348;10.980;2023-06-22T01:28:47;19.70;99.90
14144;DHT22;7152;48.348;10.980;2023-06-22T01:31:18;19.70;99.90
14144;DHT22;7152;48.348;10.980;2023-06-22T01:33:50;19.70;99.90
14144;DHT22;7152;48.348;10.980;2023-06-22T01:36:17;19.70;99.90
14144;DHT22;7152;48.348;10.980;2023-06-22T01:38:47;19.70;99.90
14144;DHT22;7152;48.348;10.980;2023-06-22T01:41:13;19.70;99.90
14144;DHT22;7152;48.348;10.980;2023-06-22T01:43:39;19.70;99.90
14144;DHT22;7152;48.348;10.980;2023-06-22T01:46:05;19.60;99.90
14144;DHT22;7152;48.348;10.980;2023-06-22T01:48:31;19.60;99.90
14144;DHT22;7152;48.348;10.980;2023-06-22T01:50:58;19.60;99.90
14144;DHT22;7152;48.348;10.980;2023-06-22T01:53:24;19.60;99.90
14144;DHT22;7152;48.348;10.980;2023-06-22T01:55:51;19.60;99.90
14144;DHT22;7152;48.348;10.980;2023-06-22T01:58:20;19.60;99.90
14144;DHT22;7152;48.348;10.980;2023-06-22T02:00:53;19.60;99.90
14144;DHT22;7152;48.348;10.980;2023-06-22T02:03:30;19.50;99.90
14144;DHT22;7152;48.348;10.980;2023-06-22T02:06:03;19.60;99.90
14144;DHT22;7152;48.348;10.980;2023-06-22T02:08:38;19.60;99.90
14144;DHT22;7152;48.348;10.980;2023-06-22T02:11:09;19.50;99.90
14144;DHT22;7152;48.348;10.980;2023-06-22T02:13:37;19.50;99.90
14144;DHT22;7152;48.348;10.980;2023-06-22T02:16:03;19.50;99.90
14144;DHT22;7152;48.348;10.980;2023-06-22T02:18:29;19.50;99.90
14144;DHT22;7152;48.348;10.980;2023-06-22T02:20:55;19.40;99.90
14144;DHT22;7152;48.348;10.980;2023-06-22T02:23:22;19.40;99.90
14144;DHT22;7152;48.348;10.980;2023-06-22T02:25:48;19.40;99.90
14144;DHT22;7152;48.348;10.980;2023-06-22T02:28:13;19.30;99.90
14144;DHT22;7152;48.348;10.980;2023-06-22T02:30:39;19.40;99.90
14144;DHT22;7152;48.348;10.980;2023-06-22T02:33:07;19.30;99.90
14144;DHT22;7152;48.348;10.980;2023-06-22T02:35:33;19.30;99.90
14144;DHT22;7152;48.348;10.980;2023-06-22T02:38:02;19.30;99.90
14144;DHT22;7152;48.348;10.980;2023-06-22T02:40:29;19.20;99.90
14144;DHT22;7152;48.348;10.980;2023-06-22T02:42:57;19.20;99.90
14144;DHT22;7152;48.348;10.980;2023-06-22T02:45:29;19.20;99.90
14144;DHT22;7152;48.348;10.980;2023-06-22T02:47:55;19.20;99.90
14144;DHT22;7152;48.348;10.980;2023-06-22T02:50:21;19.10;99.90
14144;DHT22;7152;48.348;10.980;2023-06-22T02:52:48;19.10;99.90
14144;DHT22;7152;48.348;10.980;2023-06-22T02:55:14;19.10;99.90
14144;DHT22;7152;48.348;10.980;2023-06-22T02:57:42;19.10;99.90
14144;DHT22;7152;48.348;10.980;2023-06-22T03:00:12;19.10;99.90
14144;DHT22;7152;48.348;10.980;2023-06-22T03:02:46;19.00;99.90
14144;DHT22;7152;48.348;10.980;2023-06-22T03:05:12;19.00;99.90
14144;DHT22;7152;48.348;10.980;2023-06-22T03:07:40;19.00;99.90
14144;DHT22;7152;48.348;10.980;2023-06-22T03:10:08;19.00;99.90
14144;DHT22;7152;48.348;10.980;2023-06-22T03:12:35;18.90;99.90
14144;DHT22;7152;48.348;10.980;2023-06-22T03:15:00;18.90;99.90
14144;DHT22;7152;48.348;10.980;2023-06-22T03:17:26;18.90;99.90
14144;DHT22;7152;48.348;10.980;2023-06-22T03:19:52;18.90;99.90
14144;DHT22;7152;48.348;10.980;2023-06-22T03:22:18;18.80;99.90
14144;DHT22;7152;48.348;10.980;2023-06-22T03:24:44;18.80;99.90
14144;DHT22;7152;48.348;10.980;2023-06-22T03:27:10;18.80;99.90
14144;DHT22;7152;48.348;10.980;2023-06-22T03:29:35;18.80;99.90
14144;DHT22;7152;48.348;10.980;2023-06-22T03:32:01;18.80;99.90
14144;DHT22;7152;48.348;10.980;2023-06-22T03:34:27;18.80;99.90
14144;DHT22;7152;48.348;10.980;2023-06-22T03:36:53;18.80;99.90
14144;DHT22;7152;48.348;10.980;2023-06-22T03:39:19;18.80;99.90
14144;DHT22;7152;48.348;10.980;2023-06-22T03:41:46;18.80;99.90
14144;DHT22;7152;48.348;10.980;2023-06-22T03:44:11;18.80;99.90
14144;DHT22;7152;48.348;10.980;2023-06-22T03:46:38;18.80;99.90
14144;DHT22;7152;48.348;10.980;2023-06-22T03:49:04;18.80;99.90
14144;DHT22;7152;48.348;10.980;2023-06-22T03:51:32;18.80;99.90
14144;DHT22;7152;48.348;10.980;2023-06-22T03:53:58;18.90;99.90
14144;DHT22;7152;48.348;10.980;2023-06-22T03:56:24;18.90;99.90
14144;DHT22;7152;48.348;10.980;2023-06-22T03:58:55;19.00;99.90
14144;DHT22;7152;48.348;10.980;2023-06-22T04:01:22;19.00;99.90
14144;DHT22;7152;48.348;10.980;2023-06-22T04:03:47;19.00;99.90
14144;DHT22;7152;48.348;10.980;2023-06-22T04:06:15;19.00;99.90
14144;DHT22;7152;48.348;10.980;2023-06-22T04:08:41;19.00;99.90
14144;DHT22;7152;48.348;10.980;2023-06-22T04:11:07;19.00;99.90
14144;DHT22;7152;48.348;10.980;2023-06-22T04:13:33;19.00;99.90
14144;DHT22;7152;48.348;10.980;2023-06-22T04:15:59;19.10;99.90
14144;DHT22;7152;48.348;10.980;2023-06-22T04:18:26;19.10;99.90
14144;DHT22;7152;48.348;10.980;2023-06-22T04:20:52;19.10;99.90
14144;DHT22;7152;48.348;10.980;2023-06-22T04:23:18;19.10;99.90
14144;DHT22;7152;48.348;10.980;2023-06-22T04:25:44;19.20;99.90
14144;DHT22;7152;48.348;10.980;2023-06-22T04:28:10;19.20;99.90
14144;DHT22;7152;48.348;10.980;2023-06-22T04:30:38;19.20;99.90
14144;DHT22;7152;48.348;10.980;2023-06-22T04:33:15;19.20;99.90
14144;DHT22;7152;48.348;10.980;2023-06-22T04:35:41;19.20;99.90
14144;DHT22;7152;48.348;10.980;2023-06-22T04:38:07;19.30;99.90
14144;DHT22;7152;48.348;10.980;2023-06-22T04:40:33;19.30;99.90
14144;DHT22;7152;48.348;10.980;2023-06-22T04:42:59;19.30;99.90
14144;DHT22;7152;48.348;10.980;2023-06-22T04:45:28;19.30;99.90
14144;DHT22;7152;48.348;10.980;2023-06-22T04:47:55;19.40;99.90
14144;DHT22;7152;48.348;10.980;2023-06-22T04:50:20;19.40;99.90
14144;DHT22;7152;48.348;10.980;2023-06-22T04:52:47;19.50;99.90
14144;DHT22;7152;48.348;10.980;2023-06-22T04:55:15;19.50;99.90
14144;DHT22;7152;48.348;10.980;2023-06-22T04:57:48;19.50;99.90
14144;DHT22;7152;48.348;10.980;2023-06-22T05:00:19;19.50;99.90
14144;DHT22;7152;48.348;10.980;2023-06-22T05:02:46;19.60;99.90
14144;DHT22;7152;48.348;10.980;2023-06-22T05:05:13;19.60;99.90
14144;DHT22;7152;48.348;10.980;2023-06-22T05:07:41;19.70;99.90
14144;DHT22;7152;48.348;10.980;2023-06-22T05:10:09;19.60;99.90
14144;DHT22;7152;48.348;10.980;2023-06-22T05:12:36;19.70;99.90
14144;DHT22;7152;48.348;10.980;2023-06-22T05:15:02;19.70;99.90
14144;DHT22;7152;48.348;10.980;2023-06-22T05:17:28;19.80;99.90
14144;DHT22;7152;48.348;10.980;2023-06-22T05:19:54;19.80;99.90
14144;DHT22;7152;48.348;10.980;2023-06-22T05:22:20;19.80;99.90
14144;DHT22;7152;48.348;10.980;2023-06-22T05:24:49;19.90;99.90
14144;DHT22;7152;48.348;10.980;2023-06-22T05:27:18;20.00;99.90
14144;DHT22;7152;48.348;10.980;2023-06-22T05:29:43;20.00;99.90
14144;DHT22;7152;48.348;10.980;2023-06-22T05:32:10;20.10;99.90
14144;DHT22;7152;48.348;10.980;2023-06-22T05:34:35;20.10;99.90
14144;DHT22;7152;48.348;10.980;2023-06-22T05:37:02;20.20;99.90
14144;DHT22;7152;48.348;10.980;2023-06-22T05:39:28;20.30;99.90
14144;DHT22;7152;48.348;10.980;2023-06-22T05:41:54;20.30;99.90
14144;DHT22;7152;48.348;10.980;2023-06-22T05:44:20;20.40;99.90
14144;DHT22;7152;48.348;10.980;2023-06-22T05:46:45;20.40;99.90
14144;DHT22;7152;48.348;10.980;2023-06-22T05:49:15;20.50;99.90
14144;DHT22;7152;48.348;10.980;2023-06-22T05:51:42;20.50;99.90
14144;DHT22;7152;48.348;10.980;2023-06-22T05:54:08;20.60;99.90
14144;DHT22;7152;48.348;10.980;2023-06-22T05:56:34;20.60;99.90
14144;DHT22;7152;48.348;10.980;2023-06-22T05:59:00;20.70;99.90
14144;DHT22;7152;48.348;10.980;2023-06-22T06:01:26;20.70;99.90
14144;DHT22;7152;48.348;10.980;2023-06-22T06:03:52;20.80;99.90
14144;DHT22;7152;48.348;10.980;2023-06-22T06:06:18;20.90;99.90
14144;DHT22;7152;48.348;10.980;2023-06-22T06:08:46;20.90;99.90
14144;DHT22;7152;48.348;10.980;2023-06-22T06:11:12;21.00;99.90
14144;DHT22;7152;48.348;10.980;2023-06-22T06:13:38;21.10;99.90
14144;DHT22;7152;48.348;10.980;2023-06-22T06:16:04;21.20;99.90
14144;DHT22;7152;48.348;10.980;2023-06-22T06:18:30;21.20;99.90
14144;DHT22;7152;48.348;10.980;2023-06-22T06:20:56;21.30;99.90
14144;DHT22;7152;48.348;10.980;2023-06-22T06:23:25;21.30;99.90
14144;DHT22;7152;48.348;10.980;2023-06-22T06:25:51;21.40;99.90
14144;DHT22;7152;48.348;10.980;2023-06-22T06:28:16;21.50;99.90
14144;DHT22;7152;48.348;10.980;2023-06-22T06:30:42;21.50;99.90
14144;DHT22;7152;48.348;10.980;2023-06-22T06:33:09;21.60;99.90
14144;DHT22;7152;48.348;10.980;2023-06-22T06:35:35;21.70;99.90
14144;DHT22;7152;48.348;10.980;2023-06-22T06:38:01;21.80;99.90
14144;DHT22;7152;48.348;10.980;2023-06-22T06:40:27;21.80;99.90
14144;DHT22;7152;48.348;10.980;2023-06-22T06:42:53;21.90;99.90
14144;DHT22;7152;48.348;10.980;2023-06-22T06:45:23;22.00;99.90
14144;DHT22;7152;48.348;10.980;2023-06-22T06:47:50;22.10;99.90
14144;DHT22;7152;48.348;10.980;2023-06-22T06:50:16;22.10;99.90
14144;DHT22;7152;48.348;10.980;2023-06-22T06:52:42;22.20;99.90
14144;DHT22;7152;48.348;10.980;2023-06-22T06:55:09;22.30;99.90
14144;DHT22;7152;48.348;10.980;2023-06-22T06:57:39;22.40;99.90
14144;DHT22;7152;48.348;10.980;2023-06-22T07:00:10;22.40;99.90
14144;DHT22;7152;48.348;10.980;2023-06-22T07:02:44;22.50;99.90
14144;DHT22;7152;48.348;10.980;2023-06-22T07:05:11;22.60;99.90
14144;DHT22;7152;48.348;10.980;2023-06-22T07:07:38;22.60;99.90
14144;DHT22;7152;48.348;10.980;2023-06-22T07:10:05;22.70;99.90
14144;DHT22;7152;48.348;10.980;2023-06-22T07:12:31;22.80;99.90
14144;DHT22;7152;48.348;10.980;2023-06-22T07:15:04;22.80;99.90
14144;DHT22;7152;48.348;10.980;2023-06-22T07:17:31;23.00;99.90
14144;DHT22;7152;48.348;10.980;2023-06-22T07:19:57;23.10;99.90
14144;DHT22;7152;48.348;10.980;2023-06-22T07:22:23;23.10;99.90
14144;DHT22;7152;48.348;10.980;2023-06-22T07:24:49;23.20;99.90
14144;DHT22;7152;48.348;10.980;2023-06-22T07:27:15;23.40;99.90
14144;DHT22;7152;48.348;10.980;2023-06-22T07:29:44;23.50;99.90
14144;DHT22;7152;48.348;10.980;2023-06-22T07:32:10;23.60;99.90
14144;DHT22;7152;48.348;10.980;2023-06-22T07:34:36;23.60;99.90
14144;DHT22;7152;48.348;10.980;2023-06-22T07:37:02;23.70;99.90
14144;DHT22;7152;48.348;10.980;2023-06-22T07:39:30;23.80;99.90
14144;DHT22;7152;48.348;10.980;2023-06-22T07:41:56;23.90;99.90
14144;DHT22;7152;48.348;10.980;2023-06-22T07:44:21;24.00;99.90
14144;DHT22;7152;48.348;10.980;2023-06-22T07:46:47;24.10;99.90
14144;DHT22;7152;48.348;10.980;2023-06-22T07:49:13;24.20;99.90
14144;DHT22;7152;48.348;10.980;2023-06-22T07:51:39;24.30;99.90
14144;DHT22;7152;48.348;10.980;2023-06-22T07:54:05;24.40;99.90
14144;DHT22;7152;48.348;10.980;2023-06-22T07:56:31;24.60;99.90
14144;DHT22;7152;48.348;10.980;2023-06-22T07:58:57;24.70;99.90
14144;DHT22;7152;48.348;10.980;2023-06-22T08:01:24;24.70;99.90
14144;DHT22;7152;48.348;10.980;2023-06-22T08:03:50;24.60;99.90
14144;DHT22;7152;48.348;10.980;2023-06-22T08:06:16;24.60;99.90
14144;DHT22;7152;48.348;10.980;2023-06-22T08:08:42;24.70;99.90
14144;DHT22;7152;48.348;10.980;2023-06-22T08:11:09;24.70;99.90
14144;DHT22;7152;48.348;10.980;2023-06-22T08:13:35;24.70;99.90
14144;DHT22;7152;48.348;10.980;2023-06-22T08:16:01;24.70;99.90
14144;DHT22;7152;48.348;10.980;2023-06-22T08:18:26;24.80;99.90
14144;DHT22;7152;48.348;10.980;2023-06-22T08:20:52;24.80;99.90
14144;DHT22;7152;48.348;10.980;2023-06-22T08:23:18;24.80;99.90
14144;DHT22;7152;48.348;10.980;2023-06-22T08:25:44;24.90;99.90
14144;DHT22;7152;48.348;10.980;2023-06-22T08:28:10;25.00;99.90
14144;DHT22;7152;48.348;10.980;2023-06-22T08:30:36;25.00;99.90
14144;DHT22;7152;48.348;10.980;2023-06-22T08:33:01;25.10;99.90
14144;DHT22;7152;48.348;10.980;2023-06-22T08:35:28;25.20;99.90
14144;DHT22;7152;48.348;10.980;2023-06-22T08:37:54;25.20;99.90
14144;DHT22;7152;48.348;10.980;2023-06-22T08:40:22;25.30;99.90
14144;DHT22;7152;48.348;10.980;2023-06-22T08:42:49;25.30;99.90
14144;DHT22;7152;48.348;10.980;2023-06-22T08:45:17;25.40;99.90
14144;DHT22;7152;48.348;10.980;2023-06-22T08:47:43;25.40;99.90
14144;DHT22;7152;48.348;10.980;2023-06-22T08:50:10;25.50;99.90
14144;DHT22;7152;48.348;10.980;2023-06-22T08:52:37;25.60;99.90
14144;DHT22;7152;48.348;10.980;2023-06-22T08:55:04;25.60;99.90
14144;DHT22;7152;48.348;10.980;2023-06-22T08:57:31;25.70;99.90
14144;DHT22;7152;48.348;10.980;2023-06-22T08:59:58;25.80;99.90
14144;DHT22;7152;48.348;10.980;2023-06-22T09:02:27;25.90;99.90
14144;DHT22;7152;48.348;10.980;2023-06-22T09:04:59;26.00;99.90
14144;DHT22;7152;48.348;10.980;2023-06-22T09:07:25;26.10;99.90
14144;DHT22;7152;48.348;10.980;2023-06-22T09:09:51;26.20;99.90
14144;DHT22;7152;48.348;10.980;2023-06-22T09:12:18;26.30;99.90
14144;DHT22;7152;48.348;10.980;2023-06-22T09:14:46;26.40;99.90
14144;DHT22;7152;48.348;10.980;2023-06-22T09:17:14;26.50;99.90
14144;DHT22;7152;48.348;10.980;2023-06-22T09:19:40;26.70;99.90
14144;DHT22;7152;48.348;10.980;2023-06-22T09:22:06;26.70;99.90
14144;DHT22;7152;48.348;10.980;2023-06-22T09:24:33;26.80;99.90
14144;DHT22;7152;48.348;10.980;2023-06-22T09:26:59;26.90;99.90
14144;DHT22;7152;48.348;10.980;2023-06-22T09:29:27;27.10;99.90
14144;DHT22;7152;48.348;10.980;2023-06-22T09:31:53;27.20;99.90
14144;DHT22;7152;48.348;10.980;2023-06-22T09:34:21;27.30;99.90
14144;DHT22;7152;48.348;10.980;2023-06-22T09:36:47;27.50;99.90
14144;DHT22;7152;48.348;10.980;2023-06-22T09:39:13;27.70;99.90
14144;DHT22;7152;48.348;10.980;2023-06-22T09:41:39;27.80;99.90
14144;DHT22;7152;48.348;10.980;2023-06-22T09:44:05;28.00;99.90
14144;DHT22;7152;48.348;10.980;2023-06-22T09:46:31;28.10;99.90
14144;DHT22;7152;48.348;10.980;2023-06-22T09:48:57;28.20;99.90
14144;DHT22;7152;48.348;10.980;2023-06-22T09:51:23;28.30;99.90
14144;DHT22;7152;48.348;10.980;2023-06-22T09:53:52;28.40;99.90
14144;DHT22;7152;48.348;10.980;2023-06-22T09:56:19;28.50;99.90
14144;DHT22;7152;48.348;10.980;2023-06-22T09:58:46;28.70;99.90
14144;DHT22;7152;48.348;10.980;2023-06-22T10:01:12;28.80;99.90
14144;DHT22;7152;48.348;10.980;2023-06-22T10:03:41;28.90;99.90
14144;DHT22;7152;48.348;10.980;2023-06-22T10:06:07;29.10;99.90
14144;DHT22;7152;48.348;10.980;2023-06-22T10:08:35;29.20;99.90
14144;DHT22;7152;48.348;10.980;2023-06-22T10:11:01;29.50;99.90
14144;DHT22;7152;48.348;10.980;2023-06-22T10:13:27;29.70;99.90
14144;DHT22;7152;48.348;10.980;2023-06-22T10:15:53;30.00;99.90
14144;DHT22;7152;48.348;10.980;2023-06-22T10:18:19;30.30;99.90
14144;DHT22;7152;48.348;10.980;2023-06-22T10:20:48;30.50;99.90
14144;DHT22;7152;48.348;10.980;2023-06-22T10:23:17;30.80;99.90
14144;DHT22;7152;48.348;10.980;2023-06-22T10:25:43;31.00;99.90
14144;DHT22;7152;48.348;10.980;2023-06-22T10:28:09;30.90;99.90
14144;DHT22;7152;48.348;10.980;2023-06-22T10:30:34;30.80;99.90
14144;DHT22;7152;48.348;10.980;2023-06-22T10:33:00;30.70;99.90
14144;DHT22;7152;48.348;10.980;2023-06-22T10:35:26;30.60;99.90
14144;DHT22;7152;48.348;10.980;2023-06-22T10:37:52;30.80;99.90
14144;DHT22;7152;48.348;10.980;2023-06-22T10:40:20;31.00;99.90
14144;DHT22;7152;48.348;10.980;2023-06-22T10:42:45;31.20;99.90
14144;DHT22;7152;48.348;10.980;2023-06-22T10:45:11;31.60;99.90
14144;DHT22;7152;48.348;10.980;2023-06-22T10:47:38;31.80;99.90
14144;DHT22;7152;48.348;10.980;2023-06-22T10:50:05;32.10;99.90
14144;DHT22;7152;48.348;10.980;2023-06-22T10:52:31;32.50;99.90
14144;DHT22;7152;48.348;10.980;2023-06-22T10:54:57;32.60;99.90
14144;DHT22;7152;48.348;10.980;2023-06-22T10:57:23;32.80;99.90
14144;DHT22;7152;48.348;10.980;2023-06-22T10:59:49;33.00;99.90
14144;DHT22;7152;48.348;10.980;2023-06-22T11:02:15;33.30;99.90
14144;DHT22;7152;48.348;10.980;2023-06-22T11:04:40;33.60;99.90
14144;DHT22;7152;48.348;10.980;2023-06-22T11:07:06;33.80;99.90
14144;DHT22;7152;48.348;10.980;2023-06-22T11:09:32;34.00;99.90
14144;DHT22;7152;48.348;10.980;2023-06-22T11:11:58;34.20;99.90
14144;DHT22;7152;48.348;10.980;2023-06-22T11:14:25;34.50;99.90
14144;DHT22;7152;48.348;10.980;2023-06-22T11:16:51;34.90;99.90
14144;DHT22;7152;48.348;10.980;2023-06-22T11:19:17;35.10;99.90
14144;DHT22;7152;48.348;10.980;2023-06-22T11:21:43;35.30;99.40
14144;DHT22;7152;48.348;10.980;2023-06-22T11:24:09;35.70;98.80
14144;DHT22;7152;48.348;10.980;2023-06-22T11:26:35;36.00;97.80
14144;DHT22;7152;48.348;10.980;2023-06-22T11:29:02;36.10;97.10
14144;DHT22;7152;48.348;10.980;2023-06-22T11:31:32;36.30;95.90
14144;DHT22;7152;48.348;10.980;2023-06-22T11:33:58;36.50;95.10
14144;DHT22;7152;48.348;10.980;2023-06-22T11:36:25;36.70;95.20
14144;DHT22;7152;48.348;10.980;2023-06-22T11:38:51;37.00;94.90
14144;DHT22;7152;48.348;10.980;2023-06-22T11:41:17;36.90;94.30
14144;DHT22;7152;48.348;10.980;2023-06-22T11:43:44;36.90;94.10
14144;DHT22;7152;48.348;10.980;2023-06-22T11:46:10;37.00;93.30
14144;DHT22;7152;48.348;10.980;2023-06-22T11:48:36;36.90;92.40
14144;DHT22;7152;48.348;10.980;2023-06-22T11:51:02;37.30;92.30
14144;DHT22;7152;48.348;10.980;2023-06-22T11:53:32;37.60;92.10
14144;DHT22;7152;48.348;10.980;2023-06-22T11:55:58;37.90;91.90
14144;DHT22;7152;48.348;10.980;2023-06-22T11:58:23;37.80;91.10
14144;DHT22;7152;48.348;10.980;2023-06-22T12:00:49;37.60;90.60
14144;DHT22;7152;48.348;10.980;2023-06-22T12:03:18;37.20;90.40
14144;DHT22;7152;48.348;10.980;2023-06-22T12:05:44;36.90;90.30
14144;DHT22;7152;48.348;10.980;2023-06-22T12:08:10;36.70;90.60
14144;DHT22;7152;48.348;10.980;2023-06-22T12:10:37;36.50;90.80
14144;DHT22;7152;48.348;10.980;2023-06-22T12:13:03;36.40;91.00
14144;DHT22;7152;48.348;10.980;2023-06-22T12:15:29;36.10;91.10
14144;DHT22;7152;48.348;10.980;2023-06-22T12:17:54;36.00;90.70
14144;DHT22;7152;48.348;10.980;2023-06-22T12:20:20;36.20;90.80
14144;DHT22;7152;48.348;10.980;2023-06-22T12:22:46;36.60;90.80
14144;DHT22;7152;48.348;10.980;2023-06-22T12:25:13;36.80;90.30
14144;DHT22;7152;48.348;10.980;2023-06-22T12:27:38;37.40;89.80
14144;DHT22;7152;48.348;10.980;2023-06-22T12:30:05;38.00;89.20
14144;DHT22;7152;48.348;10.980;2023-06-22T12:32:31;38.50;88.70
14144;DHT22;7152;48.348;10.980;2023-06-22T12:34:57;39.00;89.00
14144;DHT22;7152;48.348;10.980;2023-06-22T12:37:23;39.50;87.50
14144;DHT22;7152;48.348;10.980;2023-06-22T12:39:49;39.70;84.20
14144;DHT22;7152;48.348;10.980;2023-06-22T12:42:16;40.20;85.00
14144;DHT22;7152;48.348;10.980;2023-06-22T12:44:42;40.20;84.50
14144;DHT22;7152;48.348;10.980;2023-06-22T12:47:08;40.60;82.70
14144;DHT22;7152;48.348;10.980;2023-06-22T12:49:38;40.70;82.80
14144;DHT22;7152;48.348;10.980;2023-06-22T12:52:09;41.20;79.80
14144;DHT22;7152;48.348;10.980;2023-06-22T12:54:35;41.50;77.80
14144;DHT22;7152;48.348;10.980;2023-06-22T12:57:01;41.30;75.80
14144;DHT22;7152;48.348;10.980;2023-06-22T12:59:27;41.10;74.80
14144;DHT22;7152;48.348;10.980;2023-06-22T13:01:53;40.90;74.80
14144;DHT22;7152;48.348;10.980;2023-06-22T13:04:19;41.00;74.90
14144;DHT22;7152;48.348;10.980;2023-06-22T13:06:45;41.10;74.60
14144;DHT22;7152;48.348;10.980;2023-06-22T13:09:15;41.40;74.80
14144;DHT22;7152;48.348;10.980;2023-06-22T13:11:42;41.80;74.50
14144;DHT22;7152;48.348;10.980;2023-06-22T13:14:08;42.40;74.50
14144;DHT22;7152;48.348;10.980;2023-06-22T13:16:34;42.80;74.10
14144;DHT22;7152;48.348;10.980;2023-06-22T13:19:00;42.90;73.50
14144;DHT22;7152;48.348;10.980;2023-06-22T13:21:26;43.30;72.40
14144;DHT22;7152;48.348;10.980;2023-06-22T13:23:52;43.50;70.30
14144;DHT22;7152;48.348;10.980;2023-06-22T13:26:18;43.90;70.40
14144;DHT22;7152;48.348;10.980;2023-06-22T13:28:44;43.80;70.40
14144;DHT22;7152;48.348;10.980;2023-06-22T13:31:09;43.90;70.10
14144;DHT22;7152;48.348;10.980;2023-06-22T13:33:37;44.20;68.50
14144;DHT22;7152;48.348;10.980;2023-06-22T13:36:03;44.50;67.30
14144;DHT22;7152;48.348;10.980;2023-06-22T13:38:29;44.10;65.50
14144;DHT22;7152;48.348;10.980;2023-06-22T13:40:57;43.40;65.40
14144;DHT22;7152;48.348;10.980;2023-06-22T13:43:27;43.40;65.20
14144;DHT22;7152;48.348;10.980;2023-06-22T13:45:53;43.50;64.00
14144;DHT22;7152;48.348;10.980;2023-06-22T13:48:19;43.90;64.50
14144;DHT22;7152;48.348;10.980;2023-06-22T13:50:44;44.40;63.60
14144;DHT22;7152;48.348;10.980;2023-06-22T13:53:10;44.40;61.90
14144;DHT22;7152;48.348;10.980;2023-06-22T13:55:36;44.70;60.80
14144;DHT22;7152;48.348;10.980;2023-06-22T13:58:02;44.80;60.10
14144;DHT22;7152;48.348;10.980;2023-06-22T14:00:28;45.10;60.00
14144;DHT22;7152;48.348;10.980;2023-06-22T14:02:54;45.20;59.70
14144;DHT22;7152;48.348;10.980;2023-06-22T14:05:20;45.30;59.50
14144;DHT22;7152;48.348;10.980;2023-06-22T14:07:46;44.90;58.50
14144;DHT22;7152;48.348;10.980;2023-06-22T14:10:12;44.90;58.40
14144;DHT22;7152;48.348;10.980;2023-06-22T14:12:38;45.20;58.00
14144;DHT22;7152;48.348;10.980;2023-06-22T14:15:04;45.50;57.80
14144;DHT22;7152;48.348;10.980;2023-06-22T14:17:30;45.70;56.40
14144;DHT22;7152;48.348;10.980;2023-06-22T14:19:56;45.70;55.70
14144;DHT22;7152;48.348;10.980;2023-06-22T14:22:22;45.90;55.60
14144;DHT22;7152;48.348;10.980;2023-06-22T14:24:49;45.60;55.40
14144;DHT22;7152;48.348;10.980;2023-06-22T14:27:15;45.80;55.60
14144;DHT22;7152;48.348;10.980;2023-06-22T14:29:42;46.10;55.10
14144;DHT22;7152;48.348;10.980;2023-06-22T14:32:08;46.30;54.90
14144;DHT22;7152;48.348;10.980;2023-06-22T14:34:35;46.50;54.90
14144;DHT22;7152;48.348;10.980;2023-06-22T14:37:06;46.70;55.20
14144;DHT22;7152;48.348;10.980;2023-06-22T14:39:32;46.90;54.90
14144;DHT22;7152;48.348;10.980;2023-06-22T14:41:58;46.70;54.20
14144;DHT22;7152;48.348;10.980;2023-06-22T14:44:26;46.70;53.80
14144;DHT22;7152;48.348;10.980;2023-06-22T14:46:55;47.00;53.90
14144;DHT22;7152;48.348;10.980;2023-06-22T14:49:21;47.10;54.20
14144;DHT22;7152;48.348;10.980;2023-06-22T14:51:47;47.00;54.60
14144;DHT22;7152;48.348;10.980;2023-06-22T14:54:13;47.00;54.20
14144;DHT22;7152;48.348;10.980;2023-06-22T14:56:38;46.70;53.70
14144;DHT22;7152;48.348;10.980;2023-06-22T14:59:04;46.40;54.60
14144;DHT22;7152;48.348;10.980;2023-06-22T15:01:30;45.30;55.10
14144;DHT22;7152;48.348;10.980;2023-06-22T15:03:56;44.20;55.00
14144;DHT22;7152;48.348;10.980;2023-06-22T15:06:22;43.90;56.20
14144;DHT22;7152;48.348;10.980;2023-06-22T15:08:48;43.80;57.10
14144;DHT22;7152;48.348;10.980;2023-06-22T15:11:14;43.80;57.40
14144;DHT22;7152;48.348;10.980;2023-06-22T15:13:40;43.90;57.20
14144;DHT22;7152;48.348;10.980;2023-06-22T15:16:07;44.30;56.90
14144;DHT22;7152;48.348;10.980;2023-06-22T15:18:34;44.50;56.40
14144;DHT22;7152;48.348;10.980;2023-06-22T15:21:01;44.50;55.80
14144;DHT22;7152;48.348;10.980;2023-06-22T15:23:28;45.10;56.20
14144;DHT22;7152;48.348;10.980;2023-06-22T15:25:58;44.70;56.00
14144;DHT22;7152;48.348;10.980;2023-06-22T15:28:25;44.40;56.40
14144;DHT22;7152;48.348;10.980;2023-06-22T15:30:50;44.40;56.10
14144;DHT22;7152;48.348;10.980;2023-06-22T15:33:17;43.90;56.40
14144;DHT22;7152;48.348;10.980;2023-06-22T15:35:44;43.40;57.10